createdAt,value
2023-10-11T00:00:30.924Z,9.00
2023-10-11T00:03:34.642Z,7.38
2023-10-11T00:08:31.037Z,9.25
2023-10-11T00:11:04.124Z,10.10
2023-10-11T00:13:35.075Z,9.35
2023-10-11T00:16:09.722Z,13.30
2023-10-11T00:18:42.570Z,13.23
2023-10-11T00:21:16.850Z,10.65
2023-10-11T00:23:52.074Z,10.38
2023-10-11T00:26:19.875Z,9.10
2023-10-11T00:28:54.880Z,9.85
2023-10-11T00:31:21.954Z,9.85
2023-10-11T00:33:49.586Z,10.52
2023-10-11T00:36:17.816Z,7.30
2023-10-11T00:38:48.690Z,8.85
2023-10-11T00:41:20.735Z,6.53
2023-10-11T00:43:57.010Z,10.93
2023-10-11T00:46:39.496Z,10.60
2023-10-11T00:49:13.912Z,7.93
2023-10-11T00:51:43.799Z,11.13
2023-10-11T00:54:14.282Z,13.23
2023-10-11T00:56:45.093Z,6.93
2023-10-11T00:59:16.128Z,13.63
2023-10-11T01:01:44.078Z,8.48
2023-10-11T01:04:13.685Z,8.27
2023-10-11T01:06:41.168Z,6.70
2023-10-11T01:09:18.488Z,8.30
2023-10-11T01:11:47.418Z,7.82
2023-10-11T01:14:14.689Z,9.48
2023-10-11T01:16:42.981Z,9.80
2023-10-11T01:19:13.461Z,10.52
2023-10-11T01:21:43.055Z,11.00
2023-10-11T01:24:10.323Z,11.60
2023-10-11T01:26:37.885Z,11.93
2023-10-11T01:29:07.066Z,8.52
2023-10-11T01:31:34.772Z,8.60
2023-10-11T01:34:01.838Z,9.68
2023-10-11T01:36:28.878Z,12.55
2023-10-11T01:39:02.208Z,9.27
2023-10-11T01:41:29.236Z,8.10
2023-10-11T01:43:57.703Z,7.63
2023-10-11T01:46:27.840Z,6.55
2023-10-11T01:48:56.524Z,9.60
2023-10-11T01:51:27.994Z,8.07
2023-10-11T01:54:02.538Z,11.75
2023-10-11T01:59:02.238Z,7.78
2023-10-11T02:01:40.573Z,8.00
2023-10-11T02:04:12.926Z,11.55
2023-10-11T02:06:41.357Z,8.10
2023-10-11T02:09:10.473Z,11.93
2023-10-11T02:11:42.823Z,9.55
2023-10-11T02:14:10.760Z,6.93
2023-10-11T02:19:06.391Z,6.40
2023-10-11T02:21:34.267Z,9.20
2023-10-11T02:24:01.179Z,7.88
2023-10-11T02:26:36.087Z,5.88
2023-10-11T02:29:16.707Z,8.57
2023-10-11T02:31:43.961Z,6.88
2023-10-11T02:34:16.461Z,7.95
2023-10-11T02:36:44.752Z,7.53
2023-10-11T02:39:21.503Z,8.60
2023-10-11T02:41:51.546Z,10.48
2023-10-11T02:44:24.148Z,9.00
2023-10-11T02:46:52.176Z,10.15
2023-10-11T02:49:22.290Z,9.63
2023-10-11T02:51:54.090Z,15.10
2023-10-11T02:54:21.737Z,7.65
2023-10-11T02:56:48.965Z,8.18
2023-10-11T02:59:26.731Z,6.32
2023-10-11T03:02:00.795Z,11.93
2023-10-11T03:04:35.829Z,10.65
2023-10-11T03:07:02.982Z,7.05
2023-10-11T03:09:34.379Z,8.55
2023-10-11T03:12:21.565Z,10.43
2023-10-11T03:14:55.614Z,5.57
2023-10-11T03:17:23.432Z,7.15
2023-10-11T03:19:50.522Z,8.45
2023-10-11T03:22:29.485Z,11.75
2023-10-11T03:25:00.984Z,9.60
2023-10-11T03:27:28.893Z,4.95
2023-10-11T03:29:57.334Z,8.70
2023-10-11T03:32:26.813Z,7.57
2023-10-11T03:34:54.667Z,6.90
2023-10-11T03:37:21.513Z,7.65
2023-10-11T03:39:57.703Z,6.10
2023-10-11T03:42:43.760Z,7.65
2023-10-11T03:45:11.725Z,13.05
2023-10-11T03:47:39.568Z,5.65
2023-10-11T03:50:08.135Z,6.38
2023-10-11T03:52:35.103Z,6.10
2023-10-11T03:55:12.574Z,5.10
2023-10-11T03:57:44.032Z,11.05
2023-10-11T04:00:25.024Z,4.93
2023-10-11T04:02:59.829Z,10.75
2023-10-11T04:05:37.111Z,6.53
2023-10-11T04:08:09.354Z,7.32
2023-10-11T04:10:50.785Z,5.15
2023-10-11T04:13:19.859Z,9.70
2023-10-11T04:15:53.213Z,11.57
2023-10-11T04:18:38.512Z,6.60
2023-10-11T04:21:11.562Z,4.10
2023-10-11T04:23:40.479Z,8.82
2023-10-11T04:26:24.306Z,8.65
2023-10-11T04:28:53.345Z,8.68
2023-10-11T04:31:31.022Z,7.72
2023-10-11T04:34:00.335Z,8.23
2023-10-11T04:36:29.641Z,10.23
2023-10-11T04:39:05.233Z,6.13
2023-10-11T04:41:39.566Z,6.45
2023-10-11T04:44:14.397Z,6.68
2023-10-11T04:46:45.818Z,9.65
2023-10-11T04:49:24.468Z,7.55
2023-10-11T04:51:52.331Z,6.55
2023-10-11T04:56:46.779Z,8.48
2023-10-11T04:59:30.486Z,8.25
2023-10-11T05:02:00.358Z,8.60
2023-10-11T05:04:32.320Z,12.50
2023-10-11T05:07:04.620Z,8.82
2023-10-11T05:09:38.897Z,9.43
2023-10-11T05:12:07.313Z,11.48
2023-10-11T05:14:37.778Z,8.43
2023-10-11T05:17:14.425Z,13.27
2023-10-11T05:19:46.600Z,7.95
2023-10-11T05:22:29.474Z,6.55
2023-10-11T05:25:00.857Z,6.72
2023-10-11T05:27:36.602Z,6.88
2023-10-11T05:30:10.525Z,7.18
2023-10-11T05:32:49.942Z,5.00
2023-10-11T05:35:24.692Z,11.20
2023-10-11T05:38:13.949Z,5.65
2023-10-11T05:40:59.183Z,8.02
2023-10-11T05:43:44.648Z,7.68
2023-10-11T05:46:30.176Z,7.03
2023-10-11T05:49:15.536Z,6.03
2023-10-11T05:51:43.346Z,15.27
2023-10-11T05:54:12.253Z,10.80
2023-10-11T05:56:46.796Z,6.40
2023-10-11T05:59:15.433Z,6.47
2023-10-11T06:01:45.738Z,8.48
2023-10-11T06:04:15.296Z,6.63
2023-10-11T06:06:48.643Z,8.80
2023-10-11T06:09:19.291Z,6.40
2023-10-11T06:11:50.894Z,14.30
2023-10-11T06:14:19.060Z,8.55
2023-10-11T06:16:51.150Z,8.85
2023-10-11T06:19:18.891Z,6.78
2023-10-11T06:21:57.891Z,7.20
2023-10-11T06:24:36.165Z,9.07
2023-10-11T06:27:11.995Z,7.93
2023-10-11T06:29:40.354Z,12.02
2023-10-11T06:32:20.584Z,7.25
2023-10-11T06:34:48.746Z,9.60
2023-10-11T06:37:19.373Z,6.93
2023-10-11T06:39:47.854Z,8.82
2023-10-11T06:42:21.973Z,6.88
2023-10-11T06:45:00.070Z,9.75
2023-10-11T06:47:37.648Z,7.70
2023-10-11T06:50:15.284Z,7.53
2023-10-11T06:52:46.555Z,9.27
2023-10-11T06:55:15.221Z,8.57
2023-10-11T06:57:46.962Z,8.57
2023-10-11T07:00:24.757Z,9.43
2023-10-11T07:03:23.213Z,10.05
2023-10-11T07:05:52.254Z,14.70
2023-10-11T07:08:21.553Z,12.63
2023-10-11T07:11:11.145Z,11.10
2023-10-11T07:13:51.141Z,9.80
2023-10-11T07:16:23.656Z,16.92
2023-10-11T07:18:55.924Z,12.70
2023-10-11T07:21:27.434Z,10.23
2023-10-11T07:23:55.064Z,8.65
2023-10-11T07:26:24.958Z,13.85
2023-10-11T07:28:53.550Z,14.20
2023-10-11T07:31:22.582Z,10.20
2023-10-11T07:33:51.614Z,11.60
2023-10-11T07:36:20.252Z,12.48
2023-10-11T07:38:56.065Z,14.98
2023-10-11T07:41:30.056Z,12.55
2023-10-11T07:44:02.477Z,12.20
2023-10-11T07:46:32.074Z,8.63
2023-10-11T07:49:07.837Z,13.90
2023-10-11T07:51:40.992Z,13.25
2023-10-11T07:54:09.369Z,14.48
2023-10-11T07:56:37.180Z,13.07
2023-10-11T07:59:10.857Z,14.73
2023-10-11T08:01:43.939Z,13.48
2023-10-11T08:06:42.439Z,10.98
2023-10-11T08:09:11.178Z,9.90
2023-10-11T08:11:38.408Z,10.65
2023-10-11T08:19:12.459Z,12.73
2023-10-11T08:21:39.238Z,13.75
2023-10-11T08:24:07.932Z,8.90
2023-10-11T08:26:45.493Z,13.77
2023-10-11T08:29:29.514Z,8.25
2023-10-11T08:32:00.350Z,15.52
2023-10-11T08:34:28.684Z,9.20
2023-10-11T08:36:56.340Z,8.90
2023-10-11T08:39:45.356Z,12.73
2023-10-11T08:42:15.982Z,12.93
2023-10-11T08:44:47.152Z,9.02
2023-10-11T08:47:15.089Z,11.77
2023-10-11T08:49:51.827Z,9.93
2023-10-11T08:52:25.975Z,10.38
2023-10-11T08:54:52.871Z,11.55
2023-10-11T08:57:27.429Z,12.90
2023-10-11T09:00:00.375Z,9.52
2023-10-11T09:02:28.237Z,10.13
2023-10-11T09:05:07.537Z,11.70
2023-10-11T09:07:40.708Z,11.80
2023-10-11T09:10:29.622Z,11.63
2023-10-11T09:12:58.504Z,11.68
2023-10-11T09:15:34.469Z,12.65
2023-10-11T09:18:19.231Z,13.60
2023-10-11T09:20:56.891Z,16.00
2023-10-11T09:23:40.901Z,13.43
2023-10-11T09:26:09.556Z,17.20
2023-10-11T09:28:41.866Z,10.75
2023-10-11T09:31:12.253Z,17.70
2023-10-11T09:33:42.074Z,14.05
2023-10-11T09:36:10.175Z,13.30
2023-10-11T09:38:42.797Z,14.57
2023-10-11T09:41:10.254Z,14.38
2023-10-11T09:43:45.593Z,16.58
2023-10-11T09:46:14.286Z,12.27
2023-10-11T09:48:44.347Z,14.68
2023-10-11T09:51:18.759Z,14.52
2023-10-11T09:53:51.332Z,21.60
2023-10-11T09:56:33.460Z,19.90
2023-10-11T09:59:24.586Z,14.48
2023-10-11T10:02:21.084Z,15.02
2023-10-11T10:04:53.776Z,15.45
2023-10-11T10:07:46.435Z,13.32
2023-10-11T10:10:17.682Z,16.25
2023-10-11T10:12:56.635Z,20.52
2023-10-11T10:15:24.610Z,14.38
2023-10-11T10:18:06.822Z,15.23
2023-10-11T10:20:43.914Z,14.90
2023-10-11T10:23:16.839Z,19.77
2023-10-11T10:25:49.444Z,17.15
2023-10-11T10:28:37.726Z,12.57
2023-10-11T10:31:10.943Z,18.52
2023-10-11T10:33:39.095Z,11.80
2023-10-11T10:36:30.251Z,15.80
2023-10-11T10:41:41.806Z,14.93
2023-10-11T10:44:14.928Z,13.43
2023-10-11T10:46:55.386Z,9.90
2023-10-11T10:49:44.184Z,12.13
2023-10-11T10:52:18.331Z,11.75
2023-10-11T10:55:02.595Z,9.00
2023-10-11T10:57:34.106Z,9.32
2023-10-11T11:00:06.513Z,13.80
2023-10-11T11:02:34.760Z,9.48
2023-10-11T11:05:02.052Z,14.00
2023-10-11T11:07:29.000Z,13.98
2023-10-11T11:09:59.082Z,13.10
2023-10-11T11:12:30.218Z,12.93
2023-10-11T11:15:01.856Z,11.52
2023-10-11T11:17:48.369Z,15.70
2023-10-11T11:20:17.476Z,11.68
2023-10-11T11:22:46.929Z,11.30
2023-10-11T11:25:37.514Z,12.88
2023-10-11T11:28:19.780Z,13.85
2023-10-11T11:30:52.805Z,14.38
2023-10-11T11:33:29.717Z,16.88
2023-10-11T11:35:56.754Z,15.43
2023-10-11T11:38:23.591Z,11.73
2023-10-11T11:41:03.260Z,11.63
2023-10-11T11:43:34.926Z,10.93
2023-10-11T11:46:04.900Z,14.80
2023-10-11T11:48:41.512Z,14.05
2023-10-11T11:51:17.735Z,12.45
2023-10-11T11:53:45.305Z,16.17
2023-10-11T11:56:15.675Z,16.33
2023-10-11T11:58:51.172Z,17.10
2023-10-11T12:01:18.844Z,14.05
2023-10-11T12:03:55.552Z,15.02
2023-10-11T12:06:23.618Z,11.18
2023-10-11T12:09:01.445Z,15.18
2023-10-11T12:11:30.490Z,11.30
2023-10-11T12:14:05.195Z,10.77
2023-10-11T12:16:32.037Z,15.65
2023-10-11T12:19:01.853Z,12.85
2023-10-11T12:21:32.051Z,15.55
2023-10-11T12:23:58.792Z,12.73
2023-10-11T12:26:27.892Z,16.33
2023-10-11T12:28:55.542Z,11.82
2023-10-11T12:31:22.302Z,15.43
2023-10-11T12:33:49.254Z,11.48
2023-10-11T12:36:21.169Z,12.43
2023-10-11T12:38:50.201Z,15.93
2023-10-11T12:41:17.257Z,13.50
2023-10-11T12:43:46.831Z,12.07
2023-10-11T12:46:17.005Z,10.98
2023-10-11T12:48:46.342Z,10.00
2023-10-11T12:51:13.048Z,13.35
2023-10-11T12:53:39.688Z,11.73
2023-10-11T12:56:10.664Z,14.35
2023-10-11T12:58:42.937Z,16.00
2023-10-11T13:01:15.718Z,13.07
2023-10-11T13:03:44.064Z,14.32
2023-10-11T13:06:11.589Z,16.02
2023-10-11T13:08:39.138Z,11.13
2023-10-11T13:11:13.574Z,13.73
2023-10-11T13:13:45.089Z,15.55
2023-10-11T13:16:23.689Z,15.77
2023-10-11T13:18:50.417Z,11.88
2023-10-11T13:21:18.062Z,14.13
2023-10-11T13:23:45.335Z,16.98
2023-10-11T13:26:19.646Z,14.77
2023-10-11T13:28:54.280Z,17.30
2023-10-11T13:31:21.118Z,14.60
2023-10-11T13:33:47.811Z,14.70
2023-10-11T13:36:15.323Z,13.25
2023-10-11T13:38:46.452Z,16.25
2023-10-11T13:41:13.720Z,15.10
2023-10-11T13:43:41.389Z,14.57
2023-10-11T13:46:08.868Z,15.63
2023-10-11T13:48:41.148Z,16.38
2023-10-11T13:51:10.163Z,14.02
2023-10-11T13:53:45.839Z,13.95
2023-10-11T13:56:25.994Z,10.57
2023-10-11T13:58:54.176Z,15.75
2023-10-11T14:01:40.239Z,16.55
2023-10-11T14:04:15.165Z,11.27
2023-10-11T14:06:47.462Z,12.85
2023-10-11T14:09:22.466Z,16.88
2023-10-11T14:11:52.278Z,12.32
2023-10-11T14:14:21.579Z,12.75
2023-10-11T14:16:49.751Z,13.55
2023-10-11T14:19:18.135Z,13.77
2023-10-11T14:21:48.375Z,14.70
2023-10-11T14:24:20.286Z,12.00
2023-10-11T14:26:48.588Z,13.98
2023-10-11T14:29:17.149Z,10.68
2023-10-11T14:31:44.522Z,13.13
2023-10-11T14:34:12.222Z,12.40
2023-10-11T14:36:42.212Z,12.95
2023-10-11T14:39:18.877Z,13.98
2023-10-11T14:41:47.543Z,14.35
2023-10-11T14:44:14.906Z,13.60
2023-10-11T14:46:42.505Z,15.95
2023-10-11T14:49:11.831Z,13.60
2023-10-11T14:51:40.805Z,11.63
2023-10-11T14:54:07.589Z,14.95
2023-10-11T14:56:35.326Z,12.00
2023-10-11T14:59:02.701Z,14.57
2023-10-11T15:01:34.759Z,10.40
2023-10-11T15:04:10.810Z,11.75
2023-10-11T15:06:46.361Z,14.50
2023-10-11T15:09:13.789Z,12.20
2023-10-11T15:11:40.406Z,16.65
2023-10-11T15:14:10.449Z,14.23
2023-10-11T15:16:37.477Z,13.00
2023-10-11T15:19:05.263Z,10.70
2023-10-11T15:21:32.392Z,17.75
2023-10-11T15:23:59.113Z,11.73
2023-10-11T15:26:26.942Z,13.27
2023-10-11T15:28:55.246Z,11.57
2023-10-11T15:31:22.109Z,15.18
2023-10-11T15:33:49.066Z,14.65
2023-10-11T15:36:16.196Z,13.20
2023-10-11T15:38:45.733Z,11.82
2023-10-11T15:41:17.276Z,11.75
2023-10-11T15:43:44.564Z,10.30
2023-10-11T15:46:13.239Z,9.73
2023-10-11T15:48:41.088Z,10.05
2023-10-11T15:51:16.825Z,15.02
2023-10-11T15:53:46.433Z,13.27
2023-10-11T15:56:15.432Z,13.52
2023-10-11T15:58:43.203Z,14.70
2023-10-11T16:01:10.004Z,11.15
2023-10-11T16:03:41.086Z,8.95
2023-10-11T16:06:08.750Z,24.63
2023-10-11T16:08:36.223Z,10.38
2023-10-11T16:11:05.828Z,15.05
2023-10-11T16:13:35.828Z,11.55
2023-10-11T16:16:04.157Z,11.95
2023-10-11T16:18:30.826Z,15.40
2023-10-11T16:20:58.087Z,12.57
2023-10-11T16:26:02.201Z,12.27
2023-10-11T16:28:30.584Z,13.85
2023-10-11T16:30:59.661Z,13.52
2023-10-11T16:33:32.596Z,15.73
2023-10-11T16:36:02.538Z,17.90
2023-10-11T16:38:33.758Z,13.60
2023-10-11T16:41:03.933Z,13.90
2023-10-11T16:43:30.578Z,17.20
2023-10-11T16:45:58.937Z,12.20
2023-10-11T16:48:26.164Z,12.57
2023-10-11T16:50:53.021Z,11.93
2023-10-11T16:53:19.685Z,13.32
2023-10-11T16:55:46.370Z,15.25
2023-10-11T16:58:13.015Z,10.18
2023-10-11T17:00:43.307Z,11.43
2023-10-11T17:03:12.808Z,14.77
2023-10-11T17:05:39.727Z,18.13
2023-10-11T17:08:07.229Z,14.80
2023-10-11T17:10:34.963Z,15.77
2023-10-11T17:13:02.004Z,14.27
2023-10-11T17:15:28.699Z,15.27
2023-10-11T17:17:55.562Z,10.60
2023-10-11T17:20:26.122Z,11.68
2023-10-11T17:22:53.583Z,11.50
2023-10-11T17:25:22.040Z,12.77
2023-10-11T17:27:49.686Z,12.40
2023-10-11T17:30:20.903Z,13.85
2023-10-11T17:32:48.525Z,10.70
2023-10-11T17:35:17.000Z,12.20
2023-10-11T17:37:48.136Z,11.43
2023-10-11T17:40:19.278Z,14.32
2023-10-11T17:42:49.350Z,17.40
2023-10-11T17:45:18.451Z,18.50
2023-10-11T17:47:45.389Z,16.05
2023-10-11T17:50:14.507Z,12.30
2023-10-11T17:52:42.433Z,18.38
2023-10-11T17:55:10.408Z,17.00
2023-10-11T17:57:38.859Z,15.55
2023-10-11T18:00:10.430Z,14.70
2023-10-11T18:02:38.243Z,18.38
2023-10-11T18:05:13.307Z,15.90
2023-10-11T18:07:40.758Z,17.25
2023-10-11T18:12:35.350Z,14.02
2023-10-11T18:15:06.726Z,16.35
2023-10-11T18:17:40.818Z,17.88
2023-10-11T18:20:09.468Z,15.25
2023-10-11T18:22:40.652Z,14.00
2023-10-11T18:25:10.941Z,14.15
2023-10-11T18:27:38.905Z,17.40
2023-10-11T18:30:06.402Z,11.63
2023-10-11T18:35:05.367Z,11.88
2023-10-11T18:37:31.932Z,13.98
2023-10-11T18:39:59.835Z,15.63
2023-10-11T18:42:27.529Z,17.35
2023-10-11T18:44:54.799Z,15.23
2023-10-11T18:47:23.086Z,12.82
2023-10-11T18:49:50.190Z,15.88
2023-10-11T18:52:17.434Z,11.02
2023-10-11T18:54:44.150Z,13.32
2023-10-11T18:57:10.850Z,10.95
2023-10-11T18:59:37.529Z,13.48
2023-10-11T19:02:04.152Z,15.80
2023-10-11T19:04:30.773Z,13.88
2023-10-11T19:06:57.443Z,12.48
2023-10-11T19:09:24.502Z,13.60
2023-10-11T19:11:51.167Z,12.93
2023-10-11T19:14:18.038Z,14.23
2023-10-11T19:16:45.016Z,14.68
2023-10-11T19:19:13.207Z,19.42
2023-10-11T19:21:39.933Z,14.93
2023-10-11T19:24:10.172Z,14.15
2023-10-11T19:26:39.803Z,14.35
2023-10-11T19:29:06.556Z,16.02
2023-10-11T19:31:33.614Z,16.23
2023-10-11T19:34:00.302Z,17.42
2023-10-11T19:36:27.068Z,18.05
2023-10-11T19:38:53.769Z,13.57
2023-10-11T19:41:20.444Z,16.10
2023-10-11T19:43:47.196Z,14.13
2023-10-11T19:46:14.520Z,18.20
2023-10-11T19:48:44.038Z,11.48
2023-10-11T19:51:11.214Z,14.57
2023-10-11T19:53:38.344Z,13.23
2023-10-11T19:56:18.645Z,17.77
2023-10-11T19:58:46.872Z,13.25
2023-10-11T20:01:19.110Z,14.13
2023-10-11T20:03:54.363Z,10.88
2023-10-11T20:06:23.682Z,13.73
2023-10-11T20:08:52.536Z,13.32
2023-10-11T20:11:20.626Z,11.95
2023-10-11T20:13:48.092Z,16.67
2023-10-11T20:16:17.580Z,12.57
2023-10-11T20:18:45.827Z,12.10
2023-10-11T20:21:19.508Z,12.95
2023-10-11T20:26:18.798Z,17.80
2023-10-11T20:28:52.943Z,16.65
2023-10-11T20:31:19.691Z,16.60
2023-10-11T20:33:46.491Z,16.35
2023-10-11T20:36:14.202Z,14.00
2023-10-11T20:38:44.392Z,13.57
2023-10-11T20:41:12.693Z,13.00
2023-10-11T20:43:40.424Z,12.80
2023-10-11T20:46:11.841Z,14.48
2023-10-11T20:48:39.212Z,15.85
2023-10-11T20:51:08.155Z,17.00
2023-10-11T20:53:36.530Z,16.60
2023-10-11T20:56:04.976Z,17.08
2023-10-11T20:58:31.809Z,13.75
2023-10-11T21:01:01.260Z,15.50
2023-10-11T21:03:28.975Z,18.00
2023-10-11T21:08:26.512Z,20.20
2023-10-11T21:10:54.009Z,16.08
2023-10-11T21:13:22.761Z,15.55
2023-10-11T21:15:50.326Z,18.10
2023-10-11T21:18:17.462Z,19.67
2023-10-11T21:20:46.074Z,14.55
2023-10-11T21:23:19.407Z,20.75
2023-10-11T21:25:56.380Z,16.05
2023-10-11T21:28:25.153Z,21.15
2023-10-11T21:30:51.967Z,18.90
2023-10-11T21:33:19.445Z,21.15
2023-10-11T21:35:46.340Z,14.80
2023-10-11T21:38:13.493Z,18.48
2023-10-11T21:40:42.944Z,17.50
2023-10-11T21:43:13.436Z,21.80
2023-10-11T21:45:40.258Z,17.95
2023-10-11T21:48:10.811Z,15.02
2023-10-11T21:50:38.392Z,20.60
2023-10-11T21:53:05.605Z,16.02
2023-10-11T21:55:33.344Z,16.75
2023-10-11T21:58:00.032Z,22.05
2023-10-11T22:00:47.167Z,22.70
2023-10-11T22:03:15.300Z,17.63
2023-10-11T22:08:08.597Z,19.50
2023-10-11T22:10:39.693Z,16.10
2023-10-11T22:13:07.648Z,17.50
2023-10-11T22:15:34.395Z,22.08
2023-10-11T22:18:02.256Z,18.33
2023-10-11T22:20:29.513Z,19.83
2023-10-11T22:22:57.672Z,20.38
2023-10-11T22:25:25.449Z,18.95
2023-10-11T22:27:56.402Z,21.45
2023-10-11T22:30:45.379Z,17.23
2023-10-11T22:33:12.312Z,13.23
2023-10-11T22:35:39.970Z,20.95
2023-10-11T22:38:08.219Z,18.35
2023-10-11T22:40:38.271Z,22.00
2023-10-11T22:43:17.147Z,14.70
2023-10-11T22:45:51.499Z,21.63
2023-10-11T22:48:18.305Z,16.67
2023-10-11T22:50:44.999Z,20.45
2023-10-11T22:53:12.430Z,17.65
2023-10-11T22:55:42.232Z,17.35
2023-10-11T22:58:09.221Z,17.63
2023-10-11T23:00:36.592Z,22.35
2023-10-11T23:03:04.139Z,17.25
2023-10-11T23:05:33.821Z,18.83
2023-10-11T23:08:00.668Z,14.85
2023-10-11T23:10:28.196Z,16.67
2023-10-11T23:16:29.266Z,19.83
2023-10-11T23:18:59.080Z,16.08
2023-10-11T23:21:27.915Z,16.38
2023-10-11T23:23:55.458Z,28.30
2023-10-11T23:29:04.254Z,17.05
2023-10-11T23:31:31.701Z,18.58
2023-10-11T23:33:58.629Z,18.77
2023-10-11T23:36:36.254Z,17.25
2023-10-11T23:39:09.891Z,17.52
2023-10-11T23:41:47.500Z,20.20
2023-10-11T23:44:23.510Z,14.80
2023-10-11T23:46:59.252Z,23.08
2023-10-11T23:52:06.672Z,16.55
2023-10-11T23:54:35.681Z,20.08
2023-10-11T23:57:09.068Z,20.90
2023-10-11T23:59:38.332Z,20.83
